createdAt,value
2022-12-01T00:03:01.593Z,57.50
2022-12-01T00:06:05.111Z,54.15
2022-12-01T00:09:25.406Z,54.00
2022-12-01T00:12:28.054Z,61.28
2022-12-01T00:15:34.468Z,49.15
2022-12-01T00:18:36.946Z,52.08
2022-12-01T00:21:39.651Z,54.75
2022-12-01T00:24:42.211Z,60.10
2022-12-01T00:27:48.146Z,48.75
2022-12-01T00:30:52.134Z,56.90
2022-12-01T00:33:55.053Z,57.85
2022-12-01T00:36:58.042Z,55.80
2022-12-01T00:40:00.725Z,47.55
2022-12-01T00:43:03.458Z,58.58
2022-12-01T00:46:07.740Z,53.22
2022-12-01T00:49:12.499Z,53.13
2022-12-01T00:52:16.004Z,55.67
2022-12-01T00:55:18.636Z,58.00
2022-12-01T00:58:21.349Z,53.72
2022-12-01T01:01:25.393Z,52.63
2022-12-01T01:04:30.549Z,56.92
2022-12-01T01:07:33.234Z,54.03
2022-12-01T01:10:38.668Z,61.35
2022-12-01T01:13:41.402Z,55.45
2022-12-01T01:16:46.193Z,56.33
2022-12-01T01:19:49.028Z,65.10
2022-12-01T01:22:51.881Z,57.83
2022-12-01T01:25:54.506Z,57.25
2022-12-01T01:28:57.587Z,63.40
2022-12-01T01:32:01.514Z,59.95
2022-12-01T01:35:04.259Z,57.80
2022-12-01T01:38:06.910Z,57.42
2022-12-01T01:41:09.627Z,59.28
2022-12-01T01:44:30.961Z,56.03
2022-12-01T01:47:39.264Z,61.03
2022-12-01T01:50:42.476Z,56.15
2022-12-01T01:53:46.022Z,56.15
2022-12-01T01:56:49.297Z,57.55
2022-12-01T01:59:54.962Z,60.65
2022-12-01T02:02:59.041Z,51.28
2022-12-01T02:06:04.771Z,62.25
2022-12-01T02:09:07.757Z,60.17
2022-12-01T02:12:17.389Z,61.38
2022-12-01T02:15:24.151Z,65.70
2022-12-01T02:18:34.821Z,58.80
2022-12-01T02:21:45.221Z,67.18
2022-12-01T02:24:54.905Z,59.53
2022-12-01T02:28:11.489Z,59.65
2022-12-01T02:31:17.976Z,55.47
2022-12-01T02:34:24.978Z,65.63
2022-12-01T02:37:32.098Z,63.28
2022-12-01T02:40:39.421Z,65.00
2022-12-01T02:43:44.880Z,58.67
2022-12-01T02:46:51.661Z,57.25
2022-12-01T02:49:56.136Z,59.10
2022-12-01T02:52:59.698Z,54.42
2022-12-01T02:56:02.455Z,61.65
2022-12-01T02:59:06.873Z,57.47
2022-12-01T03:02:14.640Z,57.28
2022-12-01T03:05:19.830Z,71.30
2022-12-01T03:08:24.837Z,57.00
2022-12-01T03:11:31.919Z,69.25
2022-12-01T03:14:37.082Z,64.38
2022-12-01T03:17:44.551Z,59.17
2022-12-01T03:20:49.313Z,62.20
2022-12-01T03:23:52.993Z,60.35
2022-12-01T03:26:56.956Z,63.53
2022-12-01T03:30:01.972Z,52.33
2022-12-01T03:33:09.574Z,64.45
2022-12-01T03:36:14.966Z,61.50
2022-12-01T03:39:19.941Z,57.65
2022-12-01T03:42:24.659Z,65.13
2022-12-01T03:45:29.174Z,66.15
2022-12-01T03:48:33.162Z,58.00
2022-12-01T03:51:40.795Z,66.18
2022-12-01T03:54:47.203Z,61.20
2022-12-01T03:57:53.589Z,56.20
2022-12-01T04:00:57.610Z,62.10
2022-12-01T04:04:06.028Z,61.20
2022-12-01T04:07:13.277Z,61.58
2022-12-01T04:10:15.938Z,57.90
2022-12-01T04:13:22.857Z,71.40
2022-12-01T04:16:25.519Z,50.78
2022-12-01T04:19:29.537Z,71.57
2022-12-01T04:22:32.203Z,58.83
2022-12-01T04:25:34.801Z,66.53
2022-12-01T04:28:37.428Z,64.80
2022-12-01T04:31:40.340Z,76.53
2022-12-01T04:34:44.764Z,71.35
2022-12-01T04:37:47.402Z,75.13
2022-12-01T04:40:50.396Z,69.47
2022-12-01T04:43:53.478Z,72.82
2022-12-01T04:46:56.224Z,62.65
2022-12-01T04:50:00.481Z,67.75
2022-12-01T04:53:03.306Z,70.95
2022-12-01T04:56:06.338Z,60.83
2022-12-01T04:59:09.042Z,63.50
2022-12-01T05:02:11.643Z,71.65
2022-12-01T05:05:15.818Z,71.10
2022-12-01T05:08:18.456Z,66.40
2022-12-01T05:11:21.114Z,71.25
2022-12-01T05:14:23.756Z,73.30
2022-12-01T05:17:26.539Z,57.00
2022-12-01T05:20:48.099Z,86.18
2022-12-01T05:23:50.660Z,68.25
2022-12-01T05:26:53.275Z,83.68
2022-12-01T05:29:55.918Z,73.22
2022-12-01T05:32:58.832Z,70.22
2022-12-01T05:36:03.523Z,64.22
2022-12-01T05:39:06.238Z,78.57
2022-12-01T05:42:09.204Z,70.88
2022-12-01T05:45:12.051Z,74.88
2022-12-01T05:48:14.920Z,71.88
2022-12-01T05:51:19.418Z,64.88
2022-12-01T05:54:23.119Z,76.32
2022-12-01T05:57:26.229Z,65.80
2022-12-01T06:00:29.098Z,83.05
2022-12-01T06:03:31.693Z,68.20
2022-12-01T06:06:36.299Z,64.80
2022-12-01T06:09:38.909Z,71.47
2022-12-01T06:12:41.550Z,71.13
2022-12-01T06:15:44.226Z,86.57
2022-12-01T06:18:46.871Z,73.15
2022-12-01T06:21:50.906Z,74.15
2022-12-01T06:24:53.549Z,68.53
2022-12-01T06:27:56.723Z,65.38
2022-12-01T06:31:03.246Z,64.63
2022-12-01T06:34:06.487Z,69.88
2022-12-01T06:37:10.604Z,70.82
2022-12-01T06:40:13.517Z,79.45
2022-12-01T06:43:16.198Z,69.30
2022-12-01T06:46:18.935Z,79.32
2022-12-01T06:49:21.743Z,84.13
2022-12-01T06:52:25.780Z,81.68
2022-12-01T06:55:28.438Z,82.10
2022-12-01T06:58:31.133Z,76.95
2022-12-01T07:01:34.124Z,81.13
2022-12-01T07:04:36.801Z,91.43
2022-12-01T07:07:41.575Z,83.05
2022-12-01T07:10:44.212Z,75.40
2022-12-01T07:13:47.104Z,84.97
2022-12-01T07:16:49.889Z,80.72
2022-12-01T07:19:52.749Z,83.32
2022-12-01T07:22:56.730Z,76.47
2022-12-01T07:26:00.349Z,78.40
2022-12-01T07:29:02.911Z,74.93
2022-12-01T07:32:05.797Z,77.40
2022-12-01T07:35:10.139Z,81.78
2022-12-01T07:38:19.105Z,68.25
2022-12-01T07:41:24.598Z,85.93
2022-12-01T07:44:27.363Z,76.80
2022-12-01T07:47:29.954Z,88.07
2022-12-01T07:50:32.933Z,82.32
2022-12-01T07:53:37.145Z,78.50
2022-12-01T07:56:40.029Z,93.38
2022-12-01T07:59:42.677Z,80.22
2022-12-01T08:02:45.349Z,71.32
2022-12-01T08:05:56.230Z,77.03
2022-12-01T08:09:00.607Z,76.63
2022-12-01T08:12:03.240Z,79.30
2022-12-01T08:15:06.372Z,80.80
2022-12-01T08:18:09.012Z,78.28
2022-12-01T08:21:12.619Z,74.28
2022-12-01T08:24:16.577Z,72.47
2022-12-01T08:27:19.415Z,71.97
2022-12-01T08:30:22.195Z,83.25
2022-12-01T08:33:25.333Z,83.82
2022-12-01T08:36:28.148Z,77.13
2022-12-01T08:39:32.289Z,81.50
2022-12-01T08:42:35.031Z,90.43
2022-12-01T08:45:37.729Z,79.43
2022-12-01T08:48:40.668Z,76.38
2022-12-01T08:51:43.379Z,68.88
2022-12-01T08:54:47.407Z,56.58
2022-12-01T08:57:50.238Z,68.35
2022-12-01T09:00:52.876Z,45.20
2022-12-01T09:04:06.624Z,45.67
2022-12-01T09:07:10.973Z,52.60
2022-12-01T09:10:15.172Z,55.10
2022-12-01T09:13:17.914Z,47.33
2022-12-01T09:16:20.768Z,46.92
2022-12-01T09:19:25.074Z,54.47
2022-12-01T09:22:28.150Z,45.88
2022-12-01T09:25:32.329Z,48.95
2022-12-01T09:28:35.435Z,38.28
2022-12-01T09:31:38.320Z,35.00
2022-12-01T09:34:41.169Z,37.40
2022-12-01T09:37:43.920Z,52.85
2022-12-01T09:40:48.187Z,47.13
2022-12-01T09:43:54.715Z,50.88
2022-12-01T09:46:59.697Z,45.05
2022-12-01T09:50:04.064Z,48.03
2022-12-01T09:53:08.522Z,52.97
2022-12-01T09:56:19.528Z,53.03
2022-12-01T09:59:23.685Z,55.58
2022-12-01T10:02:33.010Z,40.05
2022-12-01T10:06:02.879Z,49.10
2022-12-01T10:09:11.476Z,50.92
2022-12-01T10:12:17.645Z,47.40
2022-12-01T10:15:26.099Z,46.00
2022-12-01T10:18:35.286Z,41.88
2022-12-01T10:21:48.922Z,59.70
2022-12-01T10:24:55.035Z,49.05
2022-12-01T10:28:12.114Z,48.03
2022-12-01T10:31:19.334Z,55.65
2022-12-01T10:34:23.608Z,53.97
2022-12-01T10:37:27.662Z,63.45
2022-12-01T10:40:34.490Z,55.33
2022-12-01T10:43:40.288Z,53.75
2022-12-01T10:46:45.392Z,52.80
2022-12-01T10:49:48.544Z,49.78
2022-12-01T10:52:51.544Z,56.30
2022-12-01T10:55:59.612Z,59.17
2022-12-01T10:59:06.239Z,57.92
2022-12-01T11:02:17.857Z,49.88
2022-12-01T11:05:22.321Z,60.92
2022-12-01T11:08:31.945Z,61.35
2022-12-01T11:11:36.860Z,55.67
2022-12-01T11:14:45.397Z,54.35
2022-12-01T11:17:48.479Z,57.65
2022-12-01T11:21:05.549Z,54.33
2022-12-01T11:24:17.097Z,51.15
2022-12-01T11:27:21.103Z,54.65
2022-12-01T11:30:26.097Z,40.80
2022-12-01T11:33:29.619Z,57.67
2022-12-01T11:36:38.559Z,41.42
2022-12-01T11:39:42.312Z,55.05
2022-12-01T11:42:48.359Z,38.75
2022-12-01T11:45:53.068Z,58.75
2022-12-01T11:48:58.234Z,53.08
2022-12-01T11:52:17.273Z,49.33
2022-12-01T11:55:21.214Z,43.58
2022-12-01T11:58:24.133Z,48.67
2022-12-01T12:01:32.925Z,41.55
2022-12-01T12:04:43.716Z,39.88
2022-12-01T12:07:50.882Z,44.53
2022-12-01T12:10:56.824Z,47.90
2022-12-01T12:14:06.363Z,48.40
2022-12-01T12:17:16.115Z,49.97
2022-12-01T12:20:26.418Z,42.88
2022-12-01T12:23:42.931Z,44.88
2022-12-01T12:26:51.110Z,54.25
2022-12-01T12:30:00.287Z,48.30
2022-12-01T12:33:14.899Z,39.83
2022-12-01T12:36:21.772Z,42.28
2022-12-01T12:39:30.427Z,41.33
2022-12-01T12:42:36.868Z,35.70
2022-12-01T12:45:45.052Z,30.13
2022-12-01T12:49:18.797Z,46.55
2022-12-01T12:52:22.269Z,44.88
2022-12-01T12:55:27.747Z,37.47
2022-12-01T12:58:35.708Z,39.90
2022-12-01T13:01:40.239Z,41.55
2022-12-01T13:04:50.175Z,35.85
2022-12-01T13:07:55.165Z,36.88
2022-12-01T13:11:00.405Z,51.58
2022-12-01T13:14:06.441Z,42.78
2022-12-01T13:17:15.484Z,53.50
2022-12-01T13:20:22.074Z,41.80
2022-12-01T13:23:25.101Z,29.52
2022-12-01T13:26:27.994Z,34.72
2022-12-01T13:29:32.076Z,38.85
2022-12-01T13:32:36.210Z,41.70
2022-12-01T13:35:40.602Z,35.03
2022-12-01T13:38:43.526Z,45.58
2022-12-01T13:41:46.421Z,35.78
2022-12-01T13:44:52.986Z,41.05
2022-12-01T13:47:56.855Z,27.42
2022-12-01T13:51:02.516Z,37.85
2022-12-01T13:54:06.154Z,31.67
2022-12-01T13:57:12.922Z,39.33
2022-12-01T14:00:23.807Z,30.52
2022-12-01T14:03:34.228Z,40.25
2022-12-01T14:06:46.179Z,38.28
2022-12-01T14:09:50.104Z,35.97
2022-12-01T14:12:54.027Z,36.13
2022-12-01T14:15:58.359Z,38.30
2022-12-01T14:19:01.201Z,36.58
2022-12-01T14:22:06.359Z,36.05
2022-12-01T14:25:23.340Z,38.97
2022-12-01T14:28:40.767Z,38.70
2022-12-01T14:32:02.167Z,42.78
2022-12-01T14:35:12.471Z,37.05
2022-12-01T14:38:16.879Z,40.97
2022-12-01T14:41:22.813Z,42.53
2022-12-01T14:44:30.928Z,49.00
2022-12-01T14:47:40.302Z,49.78
2022-12-01T14:50:46.746Z,48.20
2022-12-01T14:53:51.663Z,56.85
2022-12-01T14:57:05.629Z,54.63
2022-12-01T15:00:10.982Z,43.63
2022-12-01T15:03:15.544Z,45.33
2022-12-01T15:06:19.109Z,52.83
2022-12-01T15:09:39.022Z,51.13
2022-12-01T15:12:41.863Z,49.85
2022-12-01T15:15:50.437Z,52.70
2022-12-01T15:18:53.246Z,48.42
2022-12-01T15:21:55.930Z,58.85
2022-12-01T15:25:08.533Z,51.42
2022-12-01T15:28:13.584Z,69.95
2022-12-01T15:31:16.447Z,67.90
2022-12-01T15:34:20.837Z,61.63
2022-12-01T15:37:25.390Z,56.85
2022-12-01T15:43:58.046Z,67.70
2022-12-01T15:47:02.502Z,65.38
2022-12-01T15:50:07.790Z,56.88
2022-12-01T15:53:19.236Z,58.47
2022-12-01T15:56:28.287Z,63.17
2022-12-01T15:59:35.213Z,53.05
2022-12-01T16:02:37.982Z,63.08
2022-12-01T16:05:45.075Z,64.38
2022-12-01T16:08:53.869Z,45.53
2022-12-01T16:12:19.585Z,66.10
2022-12-01T16:15:23.339Z,68.38
2022-12-01T16:18:30.363Z,66.78
2022-12-01T16:21:35.295Z,55.53
2022-12-01T16:24:39.365Z,50.85
2022-12-01T16:27:50.627Z,62.40
2022-12-01T16:30:53.937Z,59.42
2022-12-01T16:34:18.525Z,60.58
2022-12-01T16:37:27.359Z,53.33
2022-12-01T16:40:30.213Z,43.83
2022-12-01T16:43:34.240Z,58.65
2022-12-01T16:46:37.019Z,57.88
2022-12-01T16:49:39.631Z,55.30
2022-12-01T16:52:45.017Z,46.30
2022-12-01T16:55:49.020Z,55.75
2022-12-01T16:58:53.167Z,45.25
2022-12-01T17:01:55.842Z,33.95
2022-12-01T17:04:59.691Z,49.55
2022-12-01T17:08:02.380Z,48.83
2022-12-01T17:11:06.874Z,55.53
2022-12-01T17:14:10.927Z,47.88
2022-12-01T17:17:13.574Z,49.55
2022-12-01T17:20:16.454Z,63.72
2022-12-01T17:23:19.122Z,46.35
2022-12-01T17:26:22.110Z,55.17
2022-12-01T17:29:26.377Z,54.92
2022-12-01T17:36:16.000Z,47.72
2022-12-01T17:39:19.278Z,42.85
2022-12-01T17:42:22.278Z,42.85
2022-12-01T17:45:26.430Z,58.53
2022-12-01T17:48:29.338Z,46.85
2022-12-01T17:51:32.021Z,40.05
2022-12-01T17:54:34.709Z,38.72
2022-12-01T17:57:37.364Z,42.03
2022-12-01T18:00:41.325Z,46.80
2022-12-01T18:03:44.403Z,47.20
2022-12-01T18:06:53.543Z,40.53
2022-12-01T18:09:56.931Z,55.40
2022-12-01T18:12:59.698Z,49.78
2022-12-01T18:16:06.141Z,43.72
2022-12-01T18:19:09.936Z,48.67
2022-12-01T18:22:12.543Z,43.25
2022-12-01T18:25:20.461Z,49.78
2022-12-01T18:28:23.216Z,40.80
2022-12-01T18:31:27.864Z,45.25
2022-12-01T18:34:30.685Z,43.35
2022-12-01T18:37:33.337Z,48.10
2022-12-01T18:40:37.004Z,37.90
2022-12-01T18:43:40.390Z,39.72
2022-12-01T18:46:44.804Z,40.47
2022-12-01T18:49:47.552Z,41.65
2022-12-01T18:52:50.269Z,40.22
2022-12-01T18:55:53.018Z,48.33
2022-12-01T18:58:56.046Z,41.10
2022-12-01T19:02:00.228Z,47.65
2022-12-01T19:05:02.926Z,35.67
2022-12-01T19:08:05.918Z,36.80
2022-12-01T19:11:09.114Z,35.60
2022-12-01T19:14:14.374Z,42.22
2022-12-01T19:17:18.491Z,36.92
2022-12-01T19:20:21.330Z,36.03
2022-12-01T19:23:24.075Z,31.40
2022-12-01T19:26:26.825Z,38.10
2022-12-01T19:29:29.559Z,45.20
2022-12-01T19:32:33.924Z,40.83
2022-12-01T19:35:36.824Z,36.70
2022-12-01T19:38:40.904Z,42.72
2022-12-01T19:41:44.559Z,42.88
2022-12-01T19:44:47.602Z,40.05
2022-12-01T19:47:53.500Z,44.30
2022-12-01T19:50:57.242Z,32.45
2022-12-01T19:54:00.804Z,37.17
2022-12-01T19:57:03.486Z,36.60
2022-12-01T20:00:06.778Z,33.30
2022-12-01T20:03:16.049Z,34.85
2022-12-01T20:06:19.849Z,38.78
2022-12-01T20:09:22.878Z,38.17
2022-12-01T20:12:25.563Z,39.17
2022-12-01T20:15:31.573Z,45.92
2022-12-01T20:18:36.304Z,41.22
2022-12-01T20:21:42.515Z,32.10
2022-12-01T20:24:45.283Z,38.42
2022-12-01T20:27:47.967Z,44.92
2022-12-01T20:30:50.817Z,43.13
2022-12-01T20:33:56.497Z,43.53
2022-12-01T20:36:59.414Z,51.17
2022-12-01T20:40:02.079Z,34.13
2022-12-01T20:43:04.795Z,45.42
2022-12-01T20:46:08.023Z,45.85
2022-12-01T20:49:12.263Z,51.40
2022-12-01T20:52:14.924Z,44.85
2022-12-01T20:55:17.969Z,48.88
2022-12-01T20:58:20.952Z,35.65
2022-12-01T21:01:23.859Z,46.40
2022-12-01T21:04:28.153Z,46.80
2022-12-01T21:07:31.431Z,37.08
2022-12-01T21:10:35.942Z,56.85
2022-12-01T21:13:39.170Z,43.78
2022-12-01T21:16:45.143Z,43.20
2022-12-01T21:19:53.578Z,51.35
2022-12-01T21:22:59.058Z,47.88
2022-12-01T21:26:01.881Z,50.35
2022-12-01T21:29:14.670Z,53.97
2022-12-01T21:32:18.371Z,46.03
2022-12-01T21:35:23.649Z,43.17
2022-12-01T21:38:26.300Z,40.88
2022-12-01T21:41:30.151Z,43.72
2022-12-01T21:44:36.621Z,53.70
2022-12-01T21:47:39.419Z,67.72
2022-12-01T21:50:44.755Z,60.35
2022-12-01T21:53:50.378Z,64.05
2022-12-01T21:56:55.540Z,66.32
2022-12-01T21:59:59.382Z,47.72
2022-12-01T22:03:07.147Z,62.35
2022-12-01T22:06:35.006Z,56.75
2022-12-01T22:09:37.663Z,49.58
2022-12-01T22:12:40.395Z,55.67
2022-12-01T22:15:43.370Z,57.35
2022-12-01T22:18:48.312Z,57.63
2022-12-01T22:21:53.838Z,47.53
2022-12-01T22:24:59.338Z,50.60
2022-12-01T22:28:03.409Z,44.38
2022-12-01T22:31:12.865Z,53.78
2022-12-01T22:34:34.121Z,47.15
2022-12-01T22:37:41.629Z,65.22
2022-12-01T22:40:46.615Z,58.30
2022-12-01T22:43:50.335Z,63.50
2022-12-01T22:46:53.223Z,50.38
2022-12-01T22:49:56.450Z,63.40
2022-12-01T22:53:15.517Z,63.53
2022-12-01T22:56:25.065Z,65.03
2022-12-01T22:59:30.465Z,60.65
2022-12-01T23:02:34.632Z,50.25
2022-12-01T23:05:38.858Z,65.53
2022-12-01T23:08:43.244Z,55.63
2022-12-01T23:11:46.317Z,57.83
2022-12-01T23:14:50.607Z,58.42
2022-12-01T23:17:53.639Z,58.33
2022-12-01T23:20:57.042Z,51.40
2022-12-01T23:25:44.074Z,61.90
2022-12-01T23:33:17.331Z,60.45
2022-12-01T23:36:25.450Z,46.97
2022-12-01T23:39:33.866Z,58.65
2022-12-01T23:42:39.534Z,74.40
2022-12-01T23:45:47.988Z,51.80
2022-12-01T23:48:53.382Z,60.45
2022-12-01T23:52:03.601Z,48.83
2022-12-01T23:55:19.731Z,58.92
2022-12-01T23:58:26.989Z,56.03
